Time;durP1;ratioP1;P1;durP2;ratioP2;P2;SDS_P1;SDS_P2;PMS_P1;PMS_P2;Temp;Humidity;BMP_temperature;BMP_pressure;BME280_temperature;BME280_humidity;BME280_pressure;Samples;Min_cycle;Max_cycle;Signal;HPM_P1;HPM_P2
2020/12/08 00:01:21;;;;;;;4.80;3.20;;;17.70;33.70;;;;;;8308245;28;20444;-47
2020/12/08 00:05:22;;;;;;;4.47;3.30;;;17.70;33.70;;;;;;8263498;28;20390;-48
2020/12/08 00:09:22;;;;;;;4.50;3.28;;;17.70;33.60;;;;;;8291494;28;20093;-47
2020/12/08 00:13:23;;;;;;;4.40;3.23;;;17.70;33.60;;;;;;8262769;28;20053;-47
2020/12/08 00:17:23;;;;;;;3.40;2.80;;;17.70;33.60;;;;;;8293400;28;20041;-48
2020/12/08 00:21:24;;;;;;;4.30;3.20;;;17.70;33.60;;;;;;8302403;28;20038;-46
2020/12/08 00:25:24;;;;;;;4.87;3.30;;;17.70;33.60;;;;;;8298024;28;20545;-47
2020/12/08 00:29:25;;;;;;;4.17;3.27;;;17.70;33.60;;;;;;8266656;28;20082;-46
2020/12/08 00:33:26;;;;;;;3.97;3.40;;;17.70;33.60;;;;;;8262665;28;20034;-49
2020/12/08 00:37:27;;;;;;;4.28;3.05;;;17.70;33.60;;;;;;8269393;28;20058;-46
2020/12/08 00:41:27;;;;;;;4.03;3.20;;;17.70;33.60;;;;;;8282890;28;20030;-47
2020/12/08 00:45:28;;;;;;;3.73;2.97;;;17.70;34.10;;;;;;8260531;28;20056;-45
2020/12/08 00:49:28;;;;;;;3.00;2.60;;;17.70;33.60;;;;;;8270300;28;20045;-47
2020/12/08 00:53:29;;;;;;;3.20;2.90;;;17.70;33.60;;;;;;8277940;28;20396;-47
2020/12/08 00:57:29;;;;;;;3.63;3.10;;;17.70;33.60;;;;;;8260796;28;20369;-47
2020/12/08 01:01:30;;;;;;;3.20;2.73;;;17.70;33.60;;;;;;8290391;28;20038;-47
2020/12/08 01:05:30;;;;;;;3.97;3.27;;;17.70;33.80;;;;;;8261599;28;20484;-47
2020/12/08 01:09:31;;;;;;;4.30;3.00;;;17.70;33.60;;;;;;8259882;28;20038;-47
2020/12/08 01:13:34;;;;;;;3.47;2.80;;;17.70;33.60;;;;;;8270237;28;20052;-47
2020/12/08 01:17:35;;;;;;;3.58;2.58;;;17.70;33.60;;;;;;8298367;28;20026;-48
2020/12/08 01:21:36;;;;;;;4.30;2.90;;;17.70;33.60;;;;;;8291899;28;20057;-47
2020/12/08 01:25:37;;;;;;;3.95;2.70;;;17.70;33.50;;;;;;8293389;28;20029;-47
2020/12/08 01:29:38;;;;;;;3.90;3.05;;;17.60;33.50;;;;;;8293165;28;20049;-47
2020/12/08 01:33:38;;;;;;;3.67;2.70;;;17.60;33.50;;;;;;8291841;28;20042;-48
2020/12/08 01:37:39;;;;;;;5.53;3.13;;;17.60;33.50;;;;;;8297545;28;20041;-47
2020/12/08 01:41:39;;;;;;;3.10;2.67;;;17.70;33.50;;;;;;8293231;28;20034;-47
2020/12/08 01:45:40;;;;;;;3.57;2.77;;;17.60;33.50;;;;;;8291574;28;20077;-47
2020/12/08 01:49:46;;;;;;;3.77;2.73;;;17.60;33.50;;;;;;8282708;28;20049;-48
2020/12/08 01:53:49;;;;;;;3.47;2.80;;;17.60;33.50;;;;;;8264920;28;20069;-47
2020/12/08 01:57:50;;;;;;;5.65;2.90;;;17.60;33.50;;;;;;8262007;28;20188;-47
2020/12/08 02:01:50;;;;;;;3.00;2.57;;;17.60;33.50;;;;;;8292572;28;20045;-47
2020/12/08 02:05:51;;;;;;;2.70;2.20;;;17.60;33.50;;;;;;8292246;28;20042;-47
2020/12/08 02:09:51;;;;;;;3.10;2.60;;;17.60;33.40;;;;;;8295165;28;20458;-47
2020/12/08 02:13:52;;;;;;;3.03;2.70;;;17.60;33.50;;;;;;8312202;28;20037;-47
2020/12/08 02:17:52;;;;;;;3.83;2.53;;;17.60;33.40;;;;;;8270174;28;20038;-47
2020/12/08 02:21:53;;;;;;;3.27;2.33;;;17.60;33.40;;;;;;8282507;28;20407;-47
2020/12/08 02:25:58;;;;;;;3.97;2.80;;;17.60;33.40;;;;;;8271344;28;20041;-47
2020/12/08 02:29:59;;;;;;;3.55;2.90;;;17.60;33.40;;;;;;8296383;28;20061;-49
2020/12/08 02:33:59;;;;;;;2.97;2.63;;;17.60;33.50;;;;;;8290544;28;20479;-48
2020/12/08 02:38:00;;;;;;;3.00;2.53;;;17.60;33.40;;;;;;8289730;28;20069;-47
2020/12/08 02:42:00;;;;;;;3.50;2.90;;;17.60;33.40;;;;;;8292753;28;20034;-48
2020/12/08 02:46:01;;;;;;;4.17;3.20;;;17.60;33.40;;;;;;8301210;28;20046;-49
2020/12/08 02:50:03;;;;;;;3.00;2.70;;;17.60;33.40;;;;;;8298090;28;20109;-47
2020/12/08 02:54:04;;;;;;;3.17;2.30;;;17.60;33.40;;;;;;8298228;28;20113;-47
2020/12/08 02:58:05;;;;;;;4.37;2.47;;;17.60;33.40;;;;;;8302147;28;20034;-47
2020/12/08 03:02:05;;;;;;;3.27;2.40;;;17.60;33.40;;;;;;8297188;28;20045;-47
2020/12/08 03:06:06;;;;;;;4.03;2.60;;;17.60;33.40;;;;;;8323960;28;20038;-47
2020/12/08 03:10:07;;;;;;;4.53;2.87;;;17.60;33.40;;;;;;8299125;28;20495;-47
2020/12/08 03:14:07;;;;;;;5.40;2.92;;;17.60;33.40;;;;;;8278886;28;20380;-47
2020/12/08 03:18:08;;;;;;;4.17;2.53;;;17.60;33.30;;;;;;8275616;28;20105;-47
2020/12/08 03:22:08;;;;;;;7.17;3.07;;;17.60;33.40;;;;;;8267669;28;20399;-48
2020/12/08 03:26:09;;;;;;;4.27;2.50;;;17.60;33.40;;;;;;8264796;28;20039;-47
2020/12/08 03:30:09;;;;;;;5.83;3.00;;;17.50;33.30;;;;;;8264700;28;20050;-46
2020/12/08 03:34:10;;;;;;;5.50;3.23;;;17.60;33.40;;;;;;8263053;28;20041;-46
2020/12/08 03:38:10;;;;;;;4.70;3.00;;;17.50;33.40;;;;;;8268973;28;20039;-46
2020/12/08 03:42:11;;;;;;;5.83;3.00;;;17.50;33.30;;;;;;8286612;28;20140;-47
2020/12/08 03:46:20;;;;;;;4.90;3.07;;;17.60;33.40;;;;;;8295061;28;20103;-47
2020/12/08 03:50:20;;;;;;;5.55;2.88;;;17.50;33.30;;;;;;8282335;28;20042;-48
2020/12/08 03:54:21;;;;;;;4.93;3.47;;;17.60;33.40;;;;;;8262675;28;20038;-46
2020/12/08 03:58:21;;;;;;;5.80;3.37;;;17.50;33.30;;;;;;8266692;28;20038;-48
2020/12/08 04:02:22;;;;;;;5.13;3.60;;;17.50;33.30;;;;;;8304979;28;20030;-46
2020/12/08 04:06:23;;;;;;;4.97;2.97;;;17.50;33.90;;;;;;8328313;28;20079;-47
2020/12/08 04:10:24;;;;;;;5.20;3.15;;;17.50;33.40;;;;;;8317942;28;20042;-46
2020/12/08 04:14:24;;;;;;;4.23;2.90;;;17.50;33.30;;;;;;8300099;28;20076;-46
2020/12/08 04:18:25;;;;;;;4.07;2.93;;;17.50;33.30;;;;;;8290107;28;20038;-46
2020/12/08 04:22:26;;;;;;;3.97;2.75;;;17.50;33.40;;;;;;8294222;28;20033;-47
2020/12/08 04:26:32;;;;;;;4.67;2.90;;;17.60;33.40;;;;;;8279360;28;20027;-47
2020/12/08 04:30:33;;;;;;;5.38;2.95;;;17.60;33.50;;;;;;8260931;28;20133;-49
2020/12/08 04:34:34;;;;;;;3.55;2.50;;;17.60;33.40;;;;;;8267518;28;20336;-48
2020/12/08 04:38:34;;;;;;;3.60;2.80;;;17.70;33.40;;;;;;8262515;28;20042;-47
2020/12/08 04:42:44;;;;;;;3.13;2.60;;;17.80;33.50;;;;;;8262216;28;20030;-47
2020/12/08 04:46:53;;;;;;;4.32;2.50;;;17.80;33.40;;;;;;8295096;28;20030;-47
2020/12/08 04:50:53;;;;;;;4.53;2.42;;;17.80;33.40;;;;;;8298890;28;20126;-47
2020/12/08 04:54:54;;;;;;;4.43;2.57;;;17.80;33.30;;;;;;8292738;28;20050;-47
2020/12/08 04:58:54;;;;;;;4.13;2.77;;;17.80;33.30;;;;;;8302618;28;20038;-49
2020/12/08 05:02:56;;;;;;;3.27;2.27;;;17.90;33.30;;;;;;8314206;28;20030;-48
2020/12/08 05:07:04;;;;;;;3.55;2.58;;;17.90;33.20;;;;;;8319975;28;20133;-46
2020/12/08 05:11:08;;;;;;;4.65;2.75;;;17.80;33.20;;;;;;8266325;28;20038;-47
2020/12/08 05:15:15;;;;;;;2.70;2.22;;;17.80;33.20;;;;;;8261408;28;20045;-48
2020/12/08 05:19:16;;;;;;;5.22;3.30;;;17.80;33.70;;;;;;8259560;28;20050;-47
2020/12/08 05:23:17;;;;;;;3.67;2.72;;;17.80;33.20;;;;;;8261697;28;20046;-47
2020/12/08 05:27:19;;;;;;;4.80;2.60;;;17.80;33.20;;;;;;8265562;28;20043;-47
2020/12/08 05:31:26;;;;;;;5.13;2.10;;;17.80;33.20;;;;;;8290745;28;20483;-47
2020/12/08 05:35:26;;;;;;;3.80;2.38;;;17.70;33.20;;;;;;8293561;28;20514;-47
2020/12/08 05:39:27;;;;;;;2.83;2.40;;;17.70;33.10;;;;;;8291521;28;20048;-44
2020/12/08 05:43:36;;;;;;;2.73;2.17;;;17.70;33.20;;;;;;8293013;28;20509;-47
2020/12/08 05:47:42;;;;;;;4.10;2.60;;;17.60;33.20;;;;;;8297514;28;20103;-47
2020/12/08 05:51:45;;;;;;;3.72;2.40;;;17.60;33.20;;;;;;8317494;28;20033;-49
2020/12/08 05:55:46;;;;;;;3.08;2.22;;;17.60;33.20;;;;;;8325170;28;20038;-47
2020/12/08 05:59:53;;;;;;;3.40;2.07;;;17.60;33.30;;;;;;8317210;28;20098;-46
2020/12/08 06:03:55;;;;;;;3.72;2.38;;;17.60;33.30;;;;;;8267366;28;20034;-47
2020/12/08 06:07:55;;;;;;;2.78;2.13;;;17.60;33.40;;;;;;8303591;28;20050;-47
2020/12/08 06:11:56;;;;;;;5.67;2.47;;;17.70;33.30;;;;;;8303179;28;20038;-47
2020/12/08 06:15:59;;;;;;;3.45;2.45;;;17.70;33.30;;;;;;8290443;28;20044;-46
2020/12/08 06:19:59;;;;;;;3.08;2.22;;;17.70;33.30;;;;;;8291941;28;20066;-47
2020/12/08 06:24:01;;;;;;;3.67;2.43;;;17.80;33.30;;;;;;8296551;28;20026;-47
2020/12/08 06:28:03;;;;;;;2.78;2.05;;;17.80;33.20;;;;;;8261591;28;20484;-47
2020/12/08 06:32:04;;;;;;;3.47;2.40;;;17.80;33.10;;;;;;8272700;28;20074;-47
2020/12/08 06:36:04;;;;;;;4.60;2.73;;;17.80;33.10;;;;;;8270832;28;20357;-47
2020/12/08 06:40:17;;;;;;;3.17;2.27;;;17.80;33.10;;;;;;8262276;28;20026;-47
2020/12/08 06:44:22;;;;;;;4.13;2.55;;;17.80;33.00;;;;;;8290952;28;20475;-47
2020/12/08 06:48:23;;;;;;;3.22;2.40;;;17.80;33.00;;;;;;8290781;28;20082;-47
2020/12/08 06:52:23;;;;;;;3.13;2.30;;;17.80;33.00;;;;;;8277765;28;20042;-48
2020/12/08 06:56:31;;;;;;;3.87;2.97;;;17.70;32.90;;;;;;8259099;28;20065;-46
2020/12/08 07:00:32;;;;;;;4.07;2.83;;;17.70;32.90;;;;;;8262792;28;20077;-45
2020/12/08 07:04:33;;;;;;;3.43;2.47;;;17.70;33.00;;;;;;8309381;28;20041;-46
2020/12/08 07:08:37;;;;;;;3.33;2.30;;;17.70;33.00;;;;;;8291336;28;20402;-47
2020/12/08 07:12:56;;;;;;;3.20;2.35;;;17.60;33.10;;;;;;8282750;28;20030;-47
2020/12/08 07:16:57;;;;;;;3.85;2.70;;;17.60;33.00;;;;;;8279195;28;20479;-47
2020/12/08 07:20:57;;;;;;;3.90;2.67;;;17.60;33.00;;;;;;8284223;28;20096;-47
2020/12/08 07:25:06;;;;;;;4.27;2.80;;;17.60;33.10;;;;;;8313213;28;20041;-47
2020/12/08 07:29:06;;;;;;;3.88;2.40;;;17.60;33.10;;;;;;8297186;28;20380;-46
2020/12/08 07:33:12;;;;;;;2.80;2.43;;;17.60;33.10;;;;;;8286322;28;20037;-47
2020/12/08 07:37:16;;;;;;;3.20;2.70;;;17.60;33.10;;;;;;8299456;28;20037;-47
2020/12/08 07:41:25;;;;;;;3.28;2.53;;;17.70;33.10;;;;;;8296435;28;20084;-47
2020/12/08 07:45:25;;;;;;;4.38;2.70;;;17.70;33.60;;;;;;8318155;28;20060;-47
2020/12/08 07:49:26;;;;;;;3.50;2.57;;;17.70;33.00;;;;;;8291587;28;20042;-47
2020/12/08 07:53:35;;;;;;;4.67;3.00;;;17.70;33.00;;;;;;8280526;28;20563;-48
2020/12/08 07:57:36;;;;;;;4.15;2.72;;;17.80;33.00;;;;;;8268171;28;20371;-47
2020/12/08 08:01:41;;;;;;;4.67;3.00;;;17.80;33.00;;;;;;8296235;28;20045;-46
2020/12/08 08:05:42;;;;;;;4.05;3.10;;;17.80;33.00;;;;;;8277988;28;20124;-48
2020/12/08 08:09:42;;;;;;;4.13;3.00;;;17.80;32.90;;;;;;8292442;28;20548;-48
2020/12/08 08:13:43;;;;;;;5.03;3.03;;;17.80;32.90;;;;;;8310669;28;20120;-48
2020/12/08 08:17:43;;;;;;;4.27;3.17;;;17.80;32.90;;;;;;8309557;28;20108;-47
2020/12/08 08:21:45;;;;;;;4.77;2.97;;;17.80;32.90;;;;;;8300758;28;20034;-47
2020/12/08 08:25:45;;;;;;;4.65;3.20;;;17.80;32.90;;;;;;8295746;28;20026;-48
2020/12/08 08:29:46;;;;;;;5.87;3.80;;;17.80;32.80;;;;;;8276539;28;20080;-47
2020/12/08 08:33:46;;;;;;;5.10;3.40;;;17.70;32.80;;;;;;8292639;28;20133;-47
2020/12/08 08:37:47;;;;;;;4.53;3.77;;;17.70;32.80;;;;;;8285051;28;20049;-47
2020/12/08 08:41:50;;;;;;;4.73;3.57;;;17.70;32.80;;;;;;8294756;28;20030;-47
2020/12/08 08:45:55;;;;;;;5.28;4.03;;;17.70;32.90;;;;;;8293330;28;20129;-47
2020/12/08 08:49:55;;;;;;;4.28;3.63;;;17.60;32.80;;;;;;8266678;28;20108;-47
2020/12/08 08:53:56;;;;;;;5.60;4.17;;;17.60;32.90;;;;;;8282428;28;20034;-48
2020/12/08 08:57:56;;;;;;;4.83;3.50;;;17.60;32.90;;;;;;8268768;28;20045;-46
2020/12/08 09:01:57;;;;;;;5.40;3.97;;;17.60;33.00;;;;;;8294588;28;20509;-47
2020/12/08 09:05:57;;;;;;;5.13;3.33;;;17.60;33.00;;;;;;8298760;28;20034;-46
2020/12/08 09:09:59;;;;;;;5.40;3.50;;;17.60;33.00;;;;;;8292790;28;20057;-47
2020/12/08 09:14:00;;;;;;;4.45;3.42;;;17.70;33.00;;;;;;8316915;28;20033;-48
2020/12/08 09:18:00;;;;;;;5.67;3.63;;;17.70;33.00;;;;;;8325736;28;20486;-48
2020/12/08 09:22:01;;;;;;;3.30;2.90;;;17.70;32.90;;;;;;8293409;28;20046;-47
2020/12/08 09:26:02;;;;;;;5.10;3.70;;;17.80;33.00;;;;;;8265536;28;20086;-47
2020/12/08 09:30:04;;;;;;;6.68;3.95;;;17.80;32.90;;;;;;8260804;28;20141;-46
2020/12/08 09:34:05;;;;;;;4.30;3.28;;;17.80;32.90;;;;;;8289009;28;20459;-47
2020/12/08 09:38:05;;;;;;;4.37;3.53;;;17.80;32.90;;;;;;8293390;28;20038;-46
2020/12/08 09:42:06;;;;;;;6.17;3.87;;;17.90;33.00;;;;;;8297383;28;20403;-47
2020/12/08 09:46:07;;;;;;;3.83;3.10;;;17.90;32.90;;;;;;8260784;28;20039;-47
2020/12/08 09:50:09;;;;;;;5.37;3.97;;;17.90;32.90;;;;;;8260386;28;20046;-47
2020/12/08 09:54:10;;;;;;;4.68;3.65;;;17.90;32.90;;;;;;8259299;28;20152;-49
2020/12/08 09:58:10;;;;;;;4.67;3.67;;;17.80;32.90;;;;;;8264900;28;20372;-47
2020/12/08 10:02:11;;;;;;;4.23;3.30;;;17.90;32.90;;;;;;8315700;28;20074;-46
2020/12/08 10:06:12;;;;;;;5.33;3.47;;;17.80;32.80;;;;;;8291840;28;20380;-46
2020/12/08 10:10:13;;;;;;;4.78;3.88;;;17.80;32.80;;;;;;8307034;28;20046;-46
2020/12/08 10:14:13;;;;;;;4.33;3.50;;;17.80;32.80;;;;;;8296810;28;20080;-46
2020/12/08 10:18:14;;;;;;;5.50;3.40;;;17.80;32.90;;;;;;8306686;28;20483;-47
2020/12/08 10:22:14;;;;;;;6.03;3.50;;;17.80;32.80;;;;;;8287005;28;20085;-46
2020/12/08 10:26:15;;;;;;;4.83;3.77;;;17.80;32.90;;;;;;8274417;28;20391;-46
2020/12/08 10:30:16;;;;;;;4.23;3.47;;;17.70;32.90;;;;;;8299715;28;20042;-46
2020/12/08 10:34:17;;;;;;;2.87;2.37;;;17.70;33.00;;;;;;8327356;28;20395;-46
2020/12/08 10:38:18;;;;;;;3.97;3.13;;;17.70;33.00;;;;;;8278046;28;20491;-47
2020/12/08 10:42:18;;;;;;;4.67;3.30;;;17.70;33.10;;;;;;8259975;28;20097;-47
2020/12/08 10:46:19;;;;;;;4.43;3.00;;;17.80;33.00;;;;;;8282538;28;20038;-47
2020/12/08 10:50:19;;;;;;;4.30;3.57;;;17.80;33.00;;;;;;8274369;28;20560;-46
2020/12/08 10:54:20;;;;;;;4.03;3.40;;;17.80;33.00;;;;;;8296204;28;20041;-47
2020/12/08 10:58:21;;;;;;;3.83;2.88;;;17.90;33.00;;;;;;8290333;28;20030;-48
2020/12/08 11:02:22;;;;;;;4.87;3.37;;;17.90;33.00;;;;;;8291742;28;20137;-48
2020/12/08 11:06:24;;;;;;;4.20;3.43;;;17.90;33.00;;;;;;8297582;28;20112;-47
2020/12/08 11:10:25;;;;;;;4.20;2.90;;;18.00;33.00;;;;;;8300562;28;20507;-47
2020/12/08 11:14:28;;;;;;;3.70;2.80;;;18.00;32.90;;;;;;8281597;28;20054;-48
2020/12/08 11:18:28;;;;;;;3.55;3.00;;;17.90;32.80;;;;;;8263926;28;20084;-46
2020/12/08 11:22:29;;;;;;;4.50;3.10;;;18.00;32.90;;;;;;8273289;28;20065;-47
2020/12/08 11:26:31;;;;;;;5.15;3.25;;;18.00;32.90;;;;;;8298233;28;20041;-46
2020/12/08 11:30:32;;;;;;;4.15;3.08;;;18.00;32.90;;;;;;8298991;28;20121;-47
2020/12/08 11:34:33;;;;;;;4.07;3.30;;;18.00;32.80;;;;;;8297536;28;20550;-47
2020/12/08 11:38:34;;;;;;;3.93;2.90;;;17.90;32.80;;;;;;8297004;28;20049;-48
2020/12/08 11:42:36;;;;;;;7.35;3.38;;;17.90;32.80;;;;;;8295229;28;20034;-47
2020/12/08 11:46:37;;;;;;;4.07;3.03;;;17.90;32.80;;;;;;8300936;28;20034;-51
2020/12/08 11:50:37;;;;;;;3.07;2.47;;;17.90;32.80;;;;;;8296586;28;20042;-50
2020/12/08 11:54:40;;;;;;;4.77;2.70;;;17.90;32.90;;;;;;8308691;28;20120;-49
2020/12/08 11:58:40;;;;;;;3.78;2.75;;;17.80;33.40;;;;;;8264090;28;20026;-46
2020/12/08 12:02:41;;;;;;;4.23;3.07;;;17.80;32.80;;;;;;8268348;28;20041;-47
2020/12/08 12:06:41;;;;;;;3.20;2.90;;;17.80;32.90;;;;;;8263779;28;20384;-47
2020/12/08 12:10:42;;;;;;;3.40;3.10;;;17.80;32.90;;;;;;8285847;28;20546;-46
2020/12/08 12:14:43;;;;;;;4.07;2.70;;;17.80;33.00;;;;;;8280648;28;20065;-47
2020/12/08 12:18:44;;;;;;;3.43;2.57;;;17.80;33.00;;;;;;8295534;28;20045;-46
2020/12/08 12:22:44;;;;;;;3.88;2.75;;;17.90;33.00;;;;;;8332600;28;20041;-47
2020/12/08 12:26:46;;;;;;;4.83;2.70;;;17.90;33.00;;;;;;8284154;28;20537;-47
2020/12/08 12:30:47;;;;;;;4.88;2.80;;;17.90;33.00;;;;;;8288509;28;20410;-47
2020/12/08 12:34:47;;;;;;;2.57;2.27;;;18.00;33.00;;;;;;8295168;28;20030;-47
2020/12/08 12:38:48;;;;;;;4.20;2.90;;;18.00;32.90;;;;;;8299503;28;20041;-47
2020/12/08 12:42:49;;;;;;;3.97;2.70;;;18.00;32.90;;;;;;8293418;28;20037;-47
2020/12/08 12:46:53;;;;;;;4.93;2.20;;;18.00;32.90;;;;;;8283632;28;20045;-46
2020/12/08 12:50:53;;;;;;;3.08;2.42;;;18.10;32.90;;;;;;8271666;28;20046;-46
2020/12/08 12:54:54;;;;;;;4.03;2.77;;;18.10;32.80;;;;;;8293734;28;20081;-47
2020/12/08 12:58:54;;;;;;;4.43;2.63;;;18.00;32.80;;;;;;8277228;28;20108;-46
2020/12/08 13:02:55;;;;;;;3.87;2.63;;;18.10;32.80;;;;;;8294352;28;20044;-46
2020/12/08 13:06:55;;;;;;;3.23;2.70;;;18.00;32.80;;;;;;8264298;28;20411;-46
2020/12/08 13:10:56;;;;;;;3.07;2.73;;;18.00;32.80;;;;;;8261431;28;20057;-47
2020/12/08 13:14:57;;;;;;;2.90;2.60;;;18.00;32.80;;;;;;8265889;28;20468;-48
2020/12/08 13:18:57;;;;;;;5.67;2.53;;;18.00;32.80;;;;;;8259440;28;20523;-47
2020/12/08 13:22:58;;;;;;;3.23;2.53;;;18.00;32.80;;;;;;8261466;28;20581;-48
2020/12/08 13:26:59;;;;;;;2.73;2.47;;;17.90;32.80;;;;;;8288015;28;20410;-48
2020/12/08 13:31:01;;;;;;;3.30;2.63;;;17.90;32.80;;;;;;8299843;28;20046;-47
2020/12/08 13:35:02;;;;;;;3.95;2.75;;;17.90;32.90;;;;;;8275651;28;20038;-47
2020/12/08 13:39:03;;;;;;;3.97;2.70;;;17.80;32.90;;;;;;8293066;28;20046;-46
2020/12/08 13:43:03;;;;;;;3.60;2.47;;;17.80;33.00;;;;;;8291217;28;20370;-46
2020/12/08 13:47:04;;;;;;;3.40;2.53;;;17.90;33.00;;;;;;8280158;28;20047;-47
2020/12/08 13:51:04;;;;;;;3.47;2.53;;;17.90;33.00;;;;;;8286288;28;20061;-46
2020/12/08 13:55:05;;;;;;;3.33;2.60;;;17.90;33.00;;;;;;8266743;28;20129;-47
2020/12/08 13:59:06;;;;;;;3.23;2.60;;;17.90;33.00;;;;;;8293572;28;20084;-47
2020/12/08 14:03:06;;;;;;;3.80;2.60;;;18.00;32.90;;;;;;8287640;28;20285;-47
2020/12/08 14:07:07;;;;;;;3.80;2.83;;;18.00;33.50;;;;;;8292559;28;20122;-48
2020/12/08 14:11:08;;;;;;;3.13;2.20;;;18.00;32.90;;;;;;8278747;28;20073;-47
2020/12/08 14:15:08;;;;;;;2.47;2.23;;;18.00;32.90;;;;;;8259938;28;20092;-47
2020/12/08 14:19:10;;;;;;;5.43;2.77;;;18.00;32.90;;;;;;8263674;28;20037;-46
2020/12/08 14:23:10;;;;;;;5.38;2.08;;;18.00;32.90;;;;;;8282604;28;20089;-47
2020/12/08 14:27:11;;;;;;;2.43;2.07;;;18.00;32.90;;;;;;8281712;28;20038;-46
2020/12/08 14:31:12;;;;;;;3.80;2.53;;;18.10;32.80;;;;;;8290123;28;20173;-47
2020/12/08 14:35:12;;;;;;;4.23;2.90;;;18.00;32.80;;;;;;8277819;28;20093;-48
2020/12/08 14:39:13;;;;;;;3.63;2.50;;;18.00;32.80;;;;;;8262327;28;20050;-47
2020/12/08 14:43:13;;;;;;;3.23;2.17;;;18.00;32.80;;;;;;8299589;28;20046;-47
2020/12/08 14:47:14;;;;;;;4.70;2.70;;;18.00;32.80;;;;;;8298776;28;20030;-47
2020/12/08 14:51:15;;;;;;;3.93;2.73;;;18.00;32.80;;;;;;8298240;28;20053;-47
2020/12/08 14:55:16;;;;;;;3.07;2.47;;;17.90;32.80;;;;;;8290104;28;20022;-47
2020/12/08 14:59:17;;;;;;;3.17;2.22;;;17.90;32.80;;;;;;8270258;28;20026;-47
2020/12/08 15:03:17;;;;;;;3.28;2.38;;;17.90;32.90;;;;;;8287022;28;20038;-46
2020/12/08 15:07:18;;;;;;;3.77;2.33;;;17.90;32.90;;;;;;8271900;28;20034;-47
2020/12/08 15:11:20;;;;;;;3.40;2.38;;;17.90;32.90;;;;;;8307110;28;20064;-47
2020/12/08 15:15:21;;;;;;;3.80;2.13;;;17.80;32.90;;;;;;8331299;28;20037;-47
2020/12/08 15:19:22;;;;;;;3.20;2.17;;;17.80;33.00;;;;;;8267379;28;20081;-47
2020/12/08 15:23:22;;;;;;;3.00;2.50;;;17.90;33.00;;;;;;8265009;28;20526;-47
2020/12/08 15:27:23;;;;;;;3.97;2.33;;;17.90;33.00;;;;;;8279021;28;20066;-48
2020/12/08 15:31:23;;;;;;;2.77;2.20;;;17.90;33.00;;;;;;8298836;28;20380;-48
2020/12/08 15:35:24;;;;;;;2.80;2.47;;;17.90;32.90;;;;;;8301642;28;20113;-48
2020/12/08 15:39:25;;;;;;;2.90;2.33;;;17.90;32.90;;;;;;8296760;28;20034;-46
2020/12/08 15:43:27;;;;;;;3.33;2.60;;;18.00;32.90;;;;;;8270718;28;20034;-47
2020/12/08 15:47:28;;;;;;;3.67;2.45;;;18.00;32.90;;;;;;8280281;28;20122;-47
2020/12/08 15:51:28;;;;;;;2.97;2.57;;;18.00;32.90;;;;;;8266692;28;20046;-45
2020/12/08 15:55:29;;;;;;;2.50;2.10;;;18.00;32.90;;;;;;8272292;28;20442;-46
2020/12/08 15:59:30;;;;;;;8.10;3.70;;;18.10;32.90;;;;;;8300342;28;20070;-48
2020/12/08 16:03:30;;;;;;;11.63;5.80;;;18.00;32.80;;;;;;8307164;28;20072;-47
2020/12/08 16:07:31;;;;;;;20.07;9.47;;;18.00;32.80;;;;;;8272165;28;20495;-48
2020/12/08 16:11:31;;;;;;;21.23;9.43;;;18.00;32.80;;;;;;8300377;28;20551;-46
2020/12/08 16:15:32;;;;;;;27.10;12.47;;;18.00;32.80;;;;;;8294007;28;20034;-47
2020/12/08 16:19:33;;;;;;;30.00;14.23;;;18.00;32.80;;;;;;8286891;28;20101;-50
2020/12/08 16:23:33;;;;;;;25.87;11.57;;;18.00;32.90;;;;;;8280059;28;20645;-47
2020/12/08 16:27:34;;;;;;;21.33;10.67;;;17.90;32.90;;;;;;8297163;28;20081;-48
2020/12/08 16:31:34;;;;;;;23.13;10.70;;;17.90;32.90;;;;;;8263028;28;20399;-47
2020/12/08 16:35:36;;;;;;;22.83;9.50;;;17.90;32.90;;;;;;8263153;28;20089;-47
2020/12/08 16:39:37;;;;;;;;;;;17.90;33.00;;;;;;8293984;28;20083;-47
2020/12/08 16:43:37;;;;;;;18.33;8.77;;;17.90;33.00;;;;;;8308090;28;20314;-47
2020/12/08 16:47:38;;;;;;;18.87;8.57;;;17.90;33.00;;;;;;8278180;28;20046;-47
2020/12/08 16:51:38;;;;;;;17.03;8.73;;;17.80;33.00;;;;;;8250231;28;20050;-47
2020/12/08 16:55:39;;;;;;;17.97;8.33;;;17.80;33.00;;;;;;8251618;28;20038;-47
2020/12/08 16:59:39;;;;;;;20.97;9.30;;;17.80;33.00;;;;;;8261875;28;20503;-47
2020/12/08 17:03:40;;;;;;;16.67;8.30;;;17.90;33.00;;;;;;8265981;28;20046;-47
2020/12/08 17:07:42;;;;;;;17.07;8.33;;;17.90;33.00;;;;;;8294077;28;20061;-46
2020/12/08 17:11:43;;;;;;;17.35;8.43;;;17.90;33.00;;;;;;8289503;28;20037;-47
2020/12/08 17:15:43;;;;;;;15.30;8.40;;;17.90;33.00;;;;;;8265893;28;20031;-47
2020/12/08 17:19:44;;;;;;;17.13;7.97;;;17.90;32.90;;;;;;8265895;28;20037;-47
2020/12/08 17:23:44;;;;;;;12.70;7.07;;;17.90;32.90;;;;;;8245775;28;20038;-48
2020/12/08 17:27:46;;;;;;;13.17;7.30;;;18.00;33.00;;;;;;8272329;28;20038;-48
2020/12/08 17:31:47;;;;;;;;;;;18.00;32.90;;;;;;8319948;28;20046;-46
2020/12/08 17:35:47;;;;;;;13.90;6.78;;;18.10;32.90;;;;;;8274157;28;20362;-46
2020/12/08 17:39:48;;;;;;;15.67;7.63;;;18.00;32.90;;;;;;8270483;28;20030;-46
2020/12/08 17:43:48;;;;;;;12.63;6.27;;;18.00;32.80;;;;;;8282397;28;20077;-50
2020/12/08 17:47:49;;;;;;;14.10;7.43;;;18.00;32.80;;;;;;8260606;28;20034;-46
2020/12/08 17:51:49;;;;;;;12.40;6.67;;;18.00;32.80;;;;;;8258555;28;20038;-46
2020/12/08 17:55:53;;;;;;;14.37;6.87;;;18.00;32.80;;;;;;8275669;28;20030;-45
2020/12/08 17:59:54;;;;;;;10.93;6.40;;;18.00;32.80;;;;;;8273260;28;20042;-44
2020/12/08 18:03:54;;;;;;;12.98;6.88;;;17.90;32.90;;;;;;8283957;27;20070;-47
2020/12/08 18:07:55;;;;;;;11.77;6.60;;;17.90;32.90;;;;;;8274450;28;20038;-43
2020/12/08 18:11:56;;;;;;;12.67;6.17;;;17.90;32.90;;;;;;8253168;28;20042;-43
2020/12/08 18:15:56;;;;;;;12.63;6.27;;;17.90;33.10;;;;;;8259605;28;20069;-42
2020/12/08 18:19:57;;;;;;;14.17;6.83;;;17.90;33.30;;;;;;8256681;28;20034;-44
2020/12/08 18:23:57;;;;;;;9.57;5.57;;;17.90;33.10;;;;;;8289148;28;20021;-43
2020/12/08 18:27:58;;;;;;;9.23;5.93;;;17.90;33.10;;;;;;8260397;28;20463;-44
2020/12/08 18:32:03;;;;;;;10.20;5.90;;;17.90;33.10;;;;;;8316798;28;20034;-43
2020/12/08 18:36:03;;;;;;;14.55;5.45;;;17.90;33.20;;;;;;8280955;28;20045;-43
2020/12/08 18:40:04;;;;;;;9.33;5.77;;;17.90;33.20;;;;;;8281811;28;20038;-43
2020/12/08 18:44:05;;;;;;;8.53;5.60;;;17.90;33.10;;;;;;8256007;28;20026;-43
2020/12/08 18:48:07;;;;;;;10.82;6.28;;;17.90;33.10;;;;;;8246859;28;20043;-43
2020/12/08 18:52:08;;;;;;;;;;;18.00;33.10;;;;;;8238054;28;20495;-44
2020/12/08 18:56:08;;;;;;;6.63;4.63;;;17.90;33.00;;;;;;8277327;28;19914;-42
2020/12/08 19:00:09;;;;;;;7.57;5.27;;;18.00;33.00;;;;;;8280136;28;20038;-42
2020/12/08 19:04:09;;;;;;;9.17;5.43;;;18.00;33.00;;;;;;8273487;28;20132;-46
2020/12/08 19:08:10;;;;;;;8.90;5.07;;;18.00;33.00;;;;;;8295117;28;20042;-46
2020/12/08 19:12:15;;;;;;;7.77;4.80;;;18.00;33.00;;;;;;8313452;28;20095;-47
2020/12/08 19:16:15;;;;;;;8.63;4.80;;;18.00;32.90;;;;;;8308508;28;20046;-45
2020/12/08 19:20:17;;;;;;;9.30;5.53;;;18.00;32.90;;;;;;8287434;28;20029;-44
2020/12/08 19:24:18;;;;;;;10.43;5.97;;;18.00;32.90;;;;;;8296436;28;20030;-45
2020/12/08 19:28:18;;;;;;;7.87;4.77;;;18.00;32.90;;;;;;8295617;28;20116;-46
2020/12/08 19:32:19;;;;;;;7.27;4.93;;;18.10;32.90;;;;;;8295157;28;20070;-42
2020/12/08 19:36:20;;;;;;;7.33;4.70;;;18.00;32.80;;;;;;8295896;28;20108;-43
2020/12/08 19:40:21;;;;;;;8.73;5.57;;;18.00;32.90;;;;;;8291542;28;20045;-44
2020/12/08 19:44:21;;;;;;;9.23;5.90;;;18.00;32.90;;;;;;8295479;28;20033;-46
2020/12/08 19:48:22;;;;;;;8.57;5.53;;;17.90;32.90;;;;;;8296579;28;20050;-46
2020/12/08 19:52:22;;;;;;;8.43;5.83;;;17.90;33.00;;;;;;8294756;28;20465;-45
2020/12/08 19:56:23;;;;;;;8.47;5.40;;;17.90;33.00;;;;;;8282236;28;20061;-45
2020/12/08 20:00:23;;;;;;;8.13;5.63;;;17.90;33.00;;;;;;8301045;28;20046;-45
2020/12/08 20:04:24;;;;;;;7.60;4.60;;;17.90;33.00;;;;;;8292564;28;20030;-42
2020/12/08 20:08:24;;;;;;;8.13;5.20;;;17.80;33.00;;;;;;8279209;28;20061;-42
2020/12/08 20:12:25;;;;;;;7.33;4.97;;;17.80;33.00;;;;;;8269731;28;20054;-45
2020/12/08 20:16:26;;;;;;;7.73;5.10;;;17.80;33.00;;;;;;8298266;28;20084;-46
2020/12/08 20:20:26;;;;;;;6.67;5.00;;;17.90;33.10;;;;;;8295970;28;20105;-45
2020/12/08 20:24:27;;;;;;;9.13;5.47;;;17.80;33.10;;;;;;8295311;28;20092;-45
2020/12/08 20:28:27;;;;;;;8.90;4.97;;;17.90;33.20;;;;;;8293814;28;20405;-45
2020/12/08 20:32:28;;;;;;;7.27;4.83;;;17.90;33.10;;;;;;8283169;28;20038;-46
2020/12/08 20:36:30;;;;;;;6.07;4.63;;;18.00;33.10;;;;;;8259854;28;20373;-45
2020/12/08 20:40:30;;;;;;;6.35;4.80;;;17.90;33.00;;;;;;8272705;28;20039;-46
2020/12/08 20:44:31;;;;;;;7.63;4.97;;;18.00;33.00;;;;;;8272619;28;20406;-44
2020/12/08 20:48:31;;;;;;;7.63;4.63;;;18.00;33.00;;;;;;8310717;28;20052;-45
2020/12/08 20:52:32;;;;;;;6.70;4.33;;;18.00;33.00;;;;;;8266002;28;20038;-46